sensor_id;sensor_type;location;lat;lon;timestamp;temperature;humidity
48860;DHT22;34679;51.436;-2.518;2023-09-30T00:00:03;12.50;99.90
48860;DHT22;34679;51.436;-2.518;2023-09-30T00:02:30;12.50;99.90
48860;DHT22;34679;51.436;-2.518;2023-09-30T00:04:56;12.50;99.90
48860;DHT22;34679;51.436;-2.518;2023-09-30T00:07:22;12.50;99.90
48860;DHT22;34679;51.436;-2.518;2023-09-30T00:09:47;12.50;99.90
48860;DHT22;34679;51.436;-2.518;2023-09-30T00:12:13;12.40;99.90
48860;DHT22;34679;51.436;-2.518;2023-09-30T00:14:39;12.40;99.90
48860;DHT22;34679;51.436;-2.518;2023-09-30T00:17:06;12.40;99.90
48860;DHT22;34679;51.436;-2.518;2023-09-30T00:19:31;12.40;99.90
48860;DHT22;34679;51.436;-2.518;2023-09-30T00:21:58;12.40;99.90
48860;DHT22;34679;51.436;-2.518;2023-09-30T00:24:25;12.30;99.90
48860;DHT22;34679;51.436;-2.518;2023-09-30T00:26:51;12.30;99.90
48860;DHT22;34679;51.436;-2.518;2023-09-30T00:29:17;12.40;99.90
48860;DHT22;34679;51.436;-2.518;2023-09-30T00:31:43;12.40;99.90
48860;DHT22;34679;51.436;-2.518;2023-09-30T00:34:10;12.40;99.90
48860;DHT22;34679;51.436;-2.518;2023-09-30T00:36:35;12.50;99.90
48860;DHT22;34679;51.436;-2.518;2023-09-30T00:39:01;12.40;99.90
48860;DHT22;34679;51.436;-2.518;2023-09-30T00:41:27;12.40;99.90
48860;DHT22;34679;51.436;-2.518;2023-09-30T00:43:52;12.30;99.90
48860;DHT22;34679;51.436;-2.518;2023-09-30T00:46:32;12.30;99.90
48860;DHT22;34679;51.436;-2.518;2023-09-30T00:48:59;12.30;99.90
48860;DHT22;34679;51.436;-2.518;2023-09-30T00:51:26;12.30;99.90
48860;DHT22;34679;51.436;-2.518;2023-09-30T00:53:53;12.30;99.90
48860;DHT22;34679;51.436;-2.518;2023-09-30T00:56:24;12.30;99.90
48860;DHT22;34679;51.436;-2.518;2023-09-30T00:58:51;12.30;99.90
48860;DHT22;34679;51.436;-2.518;2023-09-30T01:01:18;12.20;99.90
48860;DHT22;34679;51.436;-2.518;2023-09-30T01:03:46;12.20;99.90
48860;DHT22;34679;51.436;-2.518;2023-09-30T01:06:12;12.20;99.90
48860;DHT22;34679;51.436;-2.518;2023-09-30T01:08:39;12.10;99.90
48860;DHT22;34679;51.436;-2.518;2023-09-30T01:11:05;12.10;99.90
48860;DHT22;34679;51.436;-2.518;2023-09-30T01:13:37;12.10;99.90
48860;DHT22;34679;51.436;-2.518;2023-09-30T01:16:10;12.10;99.90
48860;DHT22;34679;51.436;-2.518;2023-09-30T01:18:38;12.10;99.90
48860;DHT22;34679;51.436;-2.518;2023-09-30T01:21:05;12.10;99.90
48860;DHT22;34679;51.436;-2.518;2023-09-30T01:23:32;12.10;99.90
48860;DHT22;34679;51.436;-2.518;2023-09-30T01:26:06;12.10;99.90
48860;DHT22;34679;51.436;-2.518;2023-09-30T01:28:32;12.10;99.90
48860;DHT22;34679;51.436;-2.518;2023-09-30T01:30:58;12.10;99.90
48860;DHT22;34679;51.436;-2.518;2023-09-30T01:33:24;12.10;99.90
48860;DHT22;34679;51.436;-2.518;2023-09-30T01:35:50;12.10;99.90
48860;DHT22;34679;51.436;-2.518;2023-09-30T01:38:16;12.20;99.90
48860;DHT22;34679;51.436;-2.518;2023-09-30T01:40:41;12.20;99.90
48860;DHT22;34679;51.436;-2.518;2023-09-30T01:43:10;12.20;99.90
48860;DHT22;34679;51.436;-2.518;2023-09-30T01:45:39;12.10;99.90
48860;DHT22;34679;51.436;-2.518;2023-09-30T01:48:05;12.20;99.90
48860;DHT22;34679;51.436;-2.518;2023-09-30T01:50:31;12.10;99.90
48860;DHT22;34679;51.436;-2.518;2023-09-30T01:52:56;12.10;99.90
48860;DHT22;34679;51.436;-2.518;2023-09-30T01:55:23;12.10;99.90
48860;DHT22;34679;51.436;-2.518;2023-09-30T01:57:48;12.10;99.90
48860;DHT22;34679;51.436;-2.518;2023-09-30T02:00:14;12.10;99.90
48860;DHT22;34679;51.436;-2.518;2023-09-30T02:02:40;12.00;99.90
48860;DHT22;34679;51.436;-2.518;2023-09-30T02:05:07;12.00;99.90
48860;DHT22;34679;51.436;-2.518;2023-09-30T02:07:36;11.90;99.90
48860;DHT22;34679;51.436;-2.518;2023-09-30T02:10:02;11.90;99.90
48860;DHT22;34679;51.436;-2.518;2023-09-30T02:12:28;12.00;99.90
48860;DHT22;34679;51.436;-2.518;2023-09-30T02:14:54;11.90;99.90
48860;DHT22;34679;51.436;-2.518;2023-09-30T02:17:20;11.80;99.90
48860;DHT22;34679;51.436;-2.518;2023-09-30T02:19:46;11.80;99.90
48860;DHT22;34679;51.436;-2.518;2023-09-30T02:22:12;11.70;99.90
48860;DHT22;34679;51.436;-2.518;2023-09-30T02:24:38;11.80;99.90
48860;DHT22;34679;51.436;-2.518;2023-09-30T02:27:05;11.80;99.90
48860;DHT22;34679;51.436;-2.518;2023-09-30T02:29:31;11.80;99.90
48860;DHT22;34679;51.436;-2.518;2023-09-30T02:31:57;11.80;99.90
48860;DHT22;34679;51.436;-2.518;2023-09-30T02:34:23;11.80;99.90
48860;DHT22;34679;51.436;-2.518;2023-09-30T02:36:50;11.80;99.90
48860;DHT22;34679;51.436;-2.518;2023-09-30T02:39:15;11.80;99.90
48860;DHT22;34679;51.436;-2.518;2023-09-30T02:41:42;11.80;99.90
48860;DHT22;34679;51.436;-2.518;2023-09-30T02:44:08;11.80;99.90
48860;DHT22;34679;51.436;-2.518;2023-09-30T02:46:34;11.70;99.90
48860;DHT22;34679;51.436;-2.518;2023-09-30T02:49:01;11.70;99.90
48860;DHT22;34679;51.436;-2.518;2023-09-30T02:51:27;11.70;99.90
48860;DHT22;34679;51.436;-2.518;2023-09-30T02:53:53;11.70;99.90
48860;DHT22;34679;51.436;-2.518;2023-09-30T02:56:19;11.70;99.90
48860;DHT22;34679;51.436;-2.518;2023-09-30T02:58:46;11.80;99.90
48860;DHT22;34679;51.436;-2.518;2023-09-30T03:01:15;11.80;99.90
48860;DHT22;34679;51.436;-2.518;2023-09-30T03:03:44;11.80;99.90
48860;DHT22;34679;51.436;-2.518;2023-09-30T03:06:10;11.80;99.90
48860;DHT22;34679;51.436;-2.518;2023-09-30T03:08:36;11.80;99.90
48860;DHT22;34679;51.436;-2.518;2023-09-30T03:11:03;11.80;99.90
48860;DHT22;34679;51.436;-2.518;2023-09-30T03:13:30;11.80;99.90
48860;DHT22;34679;51.436;-2.518;2023-09-30T03:15:56;11.80;99.90
48860;DHT22;34679;51.436;-2.518;2023-09-30T03:18:22;11.80;99.90
48860;DHT22;34679;51.436;-2.518;2023-09-30T03:20:57;11.80;99.90
48860;DHT22;34679;51.436;-2.518;2023-09-30T03:23:26;11.80;99.90
48860;DHT22;34679;51.436;-2.518;2023-09-30T03:25:59;11.80;99.90
48860;DHT22;34679;51.436;-2.518;2023-09-30T03:28:28;11.80;99.90
48860;DHT22;34679;51.436;-2.518;2023-09-30T03:30:54;11.80;99.90
48860;DHT22;34679;51.436;-2.518;2023-09-30T03:33:22;11.80;99.90
48860;DHT22;34679;51.436;-2.518;2023-09-30T03:35:48;11.80;99.90
48860;DHT22;34679;51.436;-2.518;2023-09-30T03:38:13;11.80;99.90
48860;DHT22;34679;51.436;-2.518;2023-09-30T03:40:42;11.80;99.90
48860;DHT22;34679;51.436;-2.518;2023-09-30T03:43:14;11.80;99.90
48860;DHT22;34679;51.436;-2.518;2023-09-30T03:45:40;11.80;99.90
48860;DHT22;34679;51.436;-2.518;2023-09-30T03:48:07;11.80;99.90
48860;DHT22;34679;51.436;-2.518;2023-09-30T03:50:33;11.80;99.90
48860;DHT22;34679;51.436;-2.518;2023-09-30T03:53:03;11.80;99.90
48860;DHT22;34679;51.436;-2.518;2023-09-30T03:55:30;11.80;99.90
48860;DHT22;34679;51.436;-2.518;2023-09-30T03:57:57;11.80;99.90
48860;DHT22;34679;51.436;-2.518;2023-09-30T04:00:23;11.80;99.90
48860;DHT22;34679;51.436;-2.518;2023-09-30T04:02:50;11.70;99.90
48860;DHT22;34679;51.436;-2.518;2023-09-30T04:05:20;11.70;99.90
48860;DHT22;34679;51.436;-2.518;2023-09-30T04:07:51;11.70;99.90
48860;DHT22;34679;51.436;-2.518;2023-09-30T04:10:17;11.70;99.90
48860;DHT22;34679;51.436;-2.518;2023-09-30T04:12:43;11.70;99.90
48860;DHT22;34679;51.436;-2.518;2023-09-30T04:15:09;11.70;99.90
48860;DHT22;34679;51.436;-2.518;2023-09-30T04:17:38;11.70;99.90
48860;DHT22;34679;51.436;-2.518;2023-09-30T04:20:06;11.70;99.90
48860;DHT22;34679;51.436;-2.518;2023-09-30T04:22:34;11.70;99.90
48860;DHT22;34679;51.436;-2.518;2023-09-30T04:25:00;11.70;99.90
48860;DHT22;34679;51.436;-2.518;2023-09-30T04:27:26;11.80;99.90
48860;DHT22;34679;51.436;-2.518;2023-09-30T04:29:52;11.80;99.90
48860;DHT22;34679;51.436;-2.518;2023-09-30T04:32:18;11.80;99.90
48860;DHT22;34679;51.436;-2.518;2023-09-30T04:34:45;11.80;99.90
48860;DHT22;34679;51.436;-2.518;2023-09-30T04:37:12;11.80;99.90
48860;DHT22;34679;51.436;-2.518;2023-09-30T04:39:39;11.80;99.90
48860;DHT22;34679;51.436;-2.518;2023-09-30T04:42:04;11.80;99.90
48860;DHT22;34679;51.436;-2.518;2023-09-30T04:44:30;11.80;99.90
48860;DHT22;34679;51.436;-2.518;2023-09-30T04:46:57;11.80;99.90
48860;DHT22;34679;51.436;-2.518;2023-09-30T04:49:23;11.80;99.90
48860;DHT22;34679;51.436;-2.518;2023-09-30T04:51:49;11.70;99.90
48860;DHT22;34679;51.436;-2.518;2023-09-30T04:54:15;11.70;99.90
48860;DHT22;34679;51.436;-2.518;2023-09-30T04:56:40;11.70;99.90
48860;DHT22;34679;51.436;-2.518;2023-09-30T04:59:06;11.70;99.90
48860;DHT22;34679;51.436;-2.518;2023-09-30T05:01:32;11.70;99.90
48860;DHT22;34679;51.436;-2.518;2023-09-30T05:03:58;11.60;99.90
48860;DHT22;34679;51.436;-2.518;2023-09-30T05:06:24;11.60;99.90
48860;DHT22;34679;51.436;-2.518;2023-09-30T05:08:50;11.60;99.90
48860;DHT22;34679;51.436;-2.518;2023-09-30T05:11:16;11.70;99.90
48860;DHT22;34679;51.436;-2.518;2023-09-30T05:13:41;11.60;99.90
48860;DHT22;34679;51.436;-2.518;2023-09-30T05:16:07;11.60;99.90
48860;DHT22;34679;51.436;-2.518;2023-09-30T05:18:33;11.60;99.90
48860;DHT22;34679;51.436;-2.518;2023-09-30T05:20:59;11.60;99.90
48860;DHT22;34679;51.436;-2.518;2023-09-30T05:23:26;11.60;99.90
48860;DHT22;34679;51.436;-2.518;2023-09-30T05:25:51;11.60;99.90
48860;DHT22;34679;51.436;-2.518;2023-09-30T05:28:19;11.60;99.90
48860;DHT22;34679;51.436;-2.518;2023-09-30T05:30:45;11.50;99.90
48860;DHT22;34679;51.436;-2.518;2023-09-30T05:33:11;11.50;99.90
48860;DHT22;34679;51.436;-2.518;2023-09-30T05:35:40;11.50;99.90
48860;DHT22;34679;51.436;-2.518;2023-09-30T05:38:07;11.40;99.90
48860;DHT22;34679;51.436;-2.518;2023-09-30T05:40:33;11.30;99.90
48860;DHT22;34679;51.436;-2.518;2023-09-30T05:42:59;11.20;99.90
48860;DHT22;34679;51.436;-2.518;2023-09-30T05:45:26;11.20;99.90
48860;DHT22;34679;51.436;-2.518;2023-09-30T05:47:53;11.00;99.90
48860;DHT22;34679;51.436;-2.518;2023-09-30T05:50:20;11.00;99.90
48860;DHT22;34679;51.436;-2.518;2023-09-30T05:52:55;10.90;99.90
48860;DHT22;34679;51.436;-2.518;2023-09-30T05:55:21;10.80;99.90
48860;DHT22;34679;51.436;-2.518;2023-09-30T05:57:48;10.80;99.90
48860;DHT22;34679;51.436;-2.518;2023-09-30T06:00:15;10.80;99.90
48860;DHT22;34679;51.436;-2.518;2023-09-30T06:02:59;10.80;99.90
48860;DHT22;34679;51.436;-2.518;2023-09-30T06:05:25;10.90;99.90
48860;DHT22;34679;51.436;-2.518;2023-09-30T06:07:55;10.90;99.90
48860;DHT22;34679;51.436;-2.518;2023-09-30T06:10:21;10.90;99.90
48860;DHT22;34679;51.436;-2.518;2023-09-30T06:12:49;10.80;99.90
48860;DHT22;34679;51.436;-2.518;2023-09-30T06:15:15;10.90;99.90
48860;DHT22;34679;51.436;-2.518;2023-09-30T06:17:42;10.80;99.90
48860;DHT22;34679;51.436;-2.518;2023-09-30T06:20:08;10.80;99.90
48860;DHT22;34679;51.436;-2.518;2023-09-30T06:22:42;10.70;99.90
48860;DHT22;34679;51.436;-2.518;2023-09-30T06:25:11;10.70;99.90
48860;DHT22;34679;51.436;-2.518;2023-09-30T06:27:38;10.70;99.90
48860;DHT22;34679;51.436;-2.518;2023-09-30T06:30:04;10.70;99.90
48860;DHT22;34679;51.436;-2.518;2023-09-30T06:32:30;10.70;99.90
48860;DHT22;34679;51.436;-2.518;2023-09-30T06:34:56;10.80;99.90
48860;DHT22;34679;51.436;-2.518;2023-09-30T06:37:22;10.90;99.90
48860;DHT22;34679;51.436;-2.518;2023-09-30T06:39:48;11.00;99.90
48860;DHT22;34679;51.436;-2.518;2023-09-30T06:42:14;11.10;99.90
48860;DHT22;34679;51.436;-2.518;2023-09-30T06:44:39;11.30;99.90
48860;DHT22;34679;51.436;-2.518;2023-09-30T06:47:05;11.50;99.90
48860;DHT22;34679;51.436;-2.518;2023-09-30T06:49:34;11.70;99.90
48860;DHT22;34679;51.436;-2.518;2023-09-30T06:51:59;11.90;99.90
48860;DHT22;34679;51.436;-2.518;2023-09-30T06:54:26;12.20;99.90
48860;DHT22;34679;51.436;-2.518;2023-09-30T06:56:52;12.70;99.90
48860;DHT22;34679;51.436;-2.518;2023-09-30T06:59:18;13.30;99.90
48860;DHT22;34679;51.436;-2.518;2023-09-30T07:01:43;13.70;99.90
48860;DHT22;34679;51.436;-2.518;2023-09-30T07:04:09;13.90;99.90
48860;DHT22;34679;51.436;-2.518;2023-09-30T07:06:37;14.20;99.90
48860;DHT22;34679;51.436;-2.518;2023-09-30T07:09:03;14.40;99.90
48860;DHT22;34679;51.436;-2.518;2023-09-30T07:11:30;14.60;99.90
48860;DHT22;34679;51.436;-2.518;2023-09-30T07:13:58;14.80;99.90
48860;DHT22;34679;51.436;-2.518;2023-09-30T07:16:24;15.20;99.90
48860;DHT22;34679;51.436;-2.518;2023-09-30T07:18:50;15.70;99.90
48860;DHT22;34679;51.436;-2.518;2023-09-30T07:21:16;16.20;99.90
48860;DHT22;34679;51.436;-2.518;2023-09-30T07:23:42;16.80;99.90
48860;DHT22;34679;51.436;-2.518;2023-09-30T07:26:08;17.20;99.90
48860;DHT22;34679;51.436;-2.518;2023-09-30T07:28:34;17.80;99.90
48860;DHT22;34679;51.436;-2.518;2023-09-30T07:31:00;18.60;99.90
48860;DHT22;34679;51.436;-2.518;2023-09-30T07:33:25;19.20;99.90
48860;DHT22;34679;51.436;-2.518;2023-09-30T07:35:51;19.60;99.90
48860;DHT22;34679;51.436;-2.518;2023-09-30T07:38:17;19.70;99.90
48860;DHT22;34679;51.436;-2.518;2023-09-30T07:40:43;19.70;99.90
48860;DHT22;34679;51.436;-2.518;2023-09-30T07:43:09;19.80;99.90
48860;DHT22;34679;51.436;-2.518;2023-09-30T07:45:36;19.50;99.90
48860;DHT22;34679;51.436;-2.518;2023-09-30T07:48:01;18.90;99.90
48860;DHT22;34679;51.436;-2.518;2023-09-30T07:50:30;18.50;99.90
48860;DHT22;34679;51.436;-2.518;2023-09-30T07:52:56;17.90;99.90
48860;DHT22;34679;51.436;-2.518;2023-09-30T07:55:21;17.30;99.90
48860;DHT22;34679;51.436;-2.518;2023-09-30T07:57:48;16.90;99.90
48860;DHT22;34679;51.436;-2.518;2023-09-30T08:00:15;16.60;99.90
48860;DHT22;34679;51.436;-2.518;2023-09-30T08:02:41;16.50;99.90
48860;DHT22;34679;51.436;-2.518;2023-09-30T08:05:08;16.30;99.90
48860;DHT22;34679;51.436;-2.518;2023-09-30T08:07:34;16.00;99.90
48860;DHT22;34679;51.436;-2.518;2023-09-30T08:10:00;16.10;99.90
48860;DHT22;34679;51.436;-2.518;2023-09-30T08:12:26;15.90;99.90
48860;DHT22;34679;51.436;-2.518;2023-09-30T08:14:52;15.80;99.90
48860;DHT22;34679;51.436;-2.518;2023-09-30T08:17:17;15.60;99.90
48860;DHT22;34679;51.436;-2.518;2023-09-30T08:19:46;15.40;99.90
48860;DHT22;34679;51.436;-2.518;2023-09-30T08:22:13;15.40;99.90
48860;DHT22;34679;51.436;-2.518;2023-09-30T08:24:39;15.20;99.90
48860;DHT22;34679;51.436;-2.518;2023-09-30T08:27:05;15.10;99.90
48860;DHT22;34679;51.436;-2.518;2023-09-30T08:29:35;15.10;99.90
48860;DHT22;34679;51.436;-2.518;2023-09-30T08:32:02;15.00;99.90
48860;DHT22;34679;51.436;-2.518;2023-09-30T08:34:29;15.00;99.90
48860;DHT22;34679;51.436;-2.518;2023-09-30T08:36:54;15.10;99.90
48860;DHT22;34679;51.436;-2.518;2023-09-30T08:39:20;15.20;99.90
48860;DHT22;34679;51.436;-2.518;2023-09-30T08:41:46;15.30;99.90
48860;DHT22;34679;51.436;-2.518;2023-09-30T08:44:11;15.50;99.90
48860;DHT22;34679;51.436;-2.518;2023-09-30T08:46:39;15.40;99.90
48860;DHT22;34679;51.436;-2.518;2023-09-30T08:49:05;15.40;99.90
48860;DHT22;34679;51.436;-2.518;2023-09-30T08:51:35;15.50;99.90
48860;DHT22;34679;51.436;-2.518;2023-09-30T08:54:01;15.40;99.90
48860;DHT22;34679;51.436;-2.518;2023-09-30T08:56:30;15.50;99.90
48860;DHT22;34679;51.436;-2.518;2023-09-30T08:59:02;15.40;99.90
48860;DHT22;34679;51.436;-2.518;2023-09-30T09:01:29;15.50;99.90
48860;DHT22;34679;51.436;-2.518;2023-09-30T09:03:56;15.60;99.90
48860;DHT22;34679;51.436;-2.518;2023-09-30T09:06:23;15.80;99.90
48860;DHT22;34679;51.436;-2.518;2023-09-30T09:08:50;16.00;99.90
48860;DHT22;34679;51.436;-2.518;2023-09-30T09:11:16;16.40;99.90
48860;DHT22;34679;51.436;-2.518;2023-09-30T09:13:53;16.90;99.90
48860;DHT22;34679;51.436;-2.518;2023-09-30T09:16:23;17.00;99.90
48860;DHT22;34679;51.436;-2.518;2023-09-30T09:18:49;17.00;99.90
48860;DHT22;34679;51.436;-2.518;2023-09-30T09:21:17;16.80;99.90
48860;DHT22;34679;51.436;-2.518;2023-09-30T09:23:44;16.90;99.90
48860;DHT22;34679;51.436;-2.518;2023-09-30T09:26:11;17.20;99.90
48860;DHT22;34679;51.436;-2.518;2023-09-30T09:28:38;17.60;99.90
48860;DHT22;34679;51.436;-2.518;2023-09-30T09:31:21;17.70;99.90
48860;DHT22;34679;51.436;-2.518;2023-09-30T09:33:50;18.00;99.90
48860;DHT22;34679;51.436;-2.518;2023-09-30T09:36:17;18.00;99.90
48860;DHT22;34679;51.436;-2.518;2023-09-30T09:38:54;17.90;99.90
48860;DHT22;34679;51.436;-2.518;2023-09-30T09:41:20;18.10;99.90
48860;DHT22;34679;51.436;-2.518;2023-09-30T09:43:49;18.10;99.90
48860;DHT22;34679;51.436;-2.518;2023-09-30T09:46:17;18.30;99.90
48860;DHT22;34679;51.436;-2.518;2023-09-30T09:48:45;18.30;99.90
48860;DHT22;34679;51.436;-2.518;2023-09-30T09:51:13;18.10;99.90
48860;DHT22;34679;51.436;-2.518;2023-09-30T09:53:41;17.90;99.90
48860;DHT22;34679;51.436;-2.518;2023-09-30T09:56:10;17.70;99.90
48860;DHT22;34679;51.436;-2.518;2023-09-30T09:58:38;17.50;99.90
48860;DHT22;34679;51.436;-2.518;2023-09-30T10:01:06;17.40;99.90
48860;DHT22;34679;51.436;-2.518;2023-09-30T10:03:32;17.40;99.90
48860;DHT22;34679;51.436;-2.518;2023-09-30T10:05:59;17.30;99.90
48860;DHT22;34679;51.436;-2.518;2023-09-30T10:08:40;17.40;99.90
48860;DHT22;34679;51.436;-2.518;2023-09-30T10:11:08;17.40;99.90
48860;DHT22;34679;51.436;-2.518;2023-09-30T10:13:54;17.40;99.90
48860;DHT22;34679;51.436;-2.518;2023-09-30T10:19:13;17.50;99.90
48860;DHT22;34679;51.436;-2.518;2023-09-30T10:21:39;17.50;99.90
48860;DHT22;34679;51.436;-2.518;2023-09-30T10:35:19;17.70;99.90
48860;DHT22;34679;51.436;-2.518;2023-09-30T10:37:46;17.70;99.90
48860;DHT22;34679;51.436;-2.518;2023-09-30T10:40:29;17.70;99.90
48860;DHT22;34679;51.436;-2.518;2023-09-30T10:42:55;18.00;99.90
48860;DHT22;34679;51.436;-2.518;2023-09-30T10:50:56;18.40;99.90
48860;DHT22;34679;51.436;-2.518;2023-09-30T10:53:22;18.50;99.90
48860;DHT22;34679;51.436;-2.518;2023-09-30T10:55:59;18.60;99.90
48860;DHT22;34679;51.436;-2.518;2023-09-30T10:58:48;19.00;99.90
48860;DHT22;34679;51.436;-2.518;2023-09-30T11:01:16;19.20;99.90
48860;DHT22;34679;51.436;-2.518;2023-09-30T11:03:43;19.40;99.90
48860;DHT22;34679;51.436;-2.518;2023-09-30T11:06:14;19.70;99.90
48860;DHT22;34679;51.436;-2.518;2023-09-30T11:08:51;20.00;99.90
48860;DHT22;34679;51.436;-2.518;2023-09-30T11:11:18;20.40;99.90
48860;DHT22;34679;51.436;-2.518;2023-09-30T11:13:43;20.50;99.90
48860;DHT22;34679;51.436;-2.518;2023-09-30T11:16:10;20.50;99.90
48860;DHT22;34679;51.436;-2.518;2023-09-30T11:18:35;20.50;99.90
48860;DHT22;34679;51.436;-2.518;2023-09-30T11:21:10;20.70;99.90
48860;DHT22;34679;51.436;-2.518;2023-09-30T11:23:37;20.10;99.90
48860;DHT22;34679;51.436;-2.518;2023-09-30T11:26:04;19.90;99.90
48860;DHT22;34679;51.436;-2.518;2023-09-30T11:28:41;19.70;99.90
48860;DHT22;34679;51.436;-2.518;2023-09-30T11:31:16;19.60;99.90
48860;DHT22;34679;51.436;-2.518;2023-09-30T11:33:53;19.60;99.90
48860;DHT22;34679;51.436;-2.518;2023-09-30T11:36:23;19.40;99.90
48860;DHT22;34679;51.436;-2.518;2023-09-30T11:38:50;19.40;99.90
48860;DHT22;34679;51.436;-2.518;2023-09-30T11:41:18;19.50;99.90
48860;DHT22;34679;51.436;-2.518;2023-09-30T11:44:01;19.70;99.90
48860;DHT22;34679;51.436;-2.518;2023-09-30T11:46:30;19.90;99.90
48860;DHT22;34679;51.436;-2.518;2023-09-30T11:49:01;20.00;99.90
48860;DHT22;34679;51.436;-2.518;2023-09-30T11:51:28;19.60;99.90
48860;DHT22;34679;51.436;-2.518;2023-09-30T11:53:55;19.40;99.90
48860;DHT22;34679;51.436;-2.518;2023-09-30T11:56:23;19.20;99.90
48860;DHT22;34679;51.436;-2.518;2023-09-30T11:58:55;19.00;99.90
48860;DHT22;34679;51.436;-2.518;2023-09-30T12:01:21;19.00;99.90
48860;DHT22;34679;51.436;-2.518;2023-09-30T12:03:48;18.90;99.90
48860;DHT22;34679;51.436;-2.518;2023-09-30T12:06:14;18.80;99.90
48860;DHT22;34679;51.436;-2.518;2023-09-30T12:08:42;18.60;99.90
48860;DHT22;34679;51.436;-2.518;2023-09-30T12:11:07;18.50;99.90
48860;DHT22;34679;51.436;-2.518;2023-09-30T12:13:33;18.60;99.90
48860;DHT22;34679;51.436;-2.518;2023-09-30T12:15:59;18.70;99.90
48860;DHT22;34679;51.436;-2.518;2023-09-30T12:18:25;18.90;99.90
48860;DHT22;34679;51.436;-2.518;2023-09-30T12:20:52;18.90;99.90
48860;DHT22;34679;51.436;-2.518;2023-09-30T12:23:21;19.20;99.90
48860;DHT22;34679;51.436;-2.518;2023-09-30T12:25:47;19.20;99.90
48860;DHT22;34679;51.436;-2.518;2023-09-30T12:28:13;19.20;99.90
48860;DHT22;34679;51.436;-2.518;2023-09-30T12:30:43;19.30;99.90
48860;DHT22;34679;51.436;-2.518;2023-09-30T12:33:09;19.50;99.90
48860;DHT22;34679;51.436;-2.518;2023-09-30T12:35:36;19.50;99.90
48860;DHT22;34679;51.436;-2.518;2023-09-30T12:38:02;19.50;99.90
48860;DHT22;34679;51.436;-2.518;2023-09-30T12:40:27;19.30;99.90
48860;DHT22;34679;51.436;-2.518;2023-09-30T12:42:55;19.40;99.90
48860;DHT22;34679;51.436;-2.518;2023-09-30T12:45:20;19.30;99.90
48860;DHT22;34679;51.436;-2.518;2023-09-30T12:47:46;19.40;99.90
48860;DHT22;34679;51.436;-2.518;2023-09-30T12:50:13;19.40;99.90
48860;DHT22;34679;51.436;-2.518;2023-09-30T12:52:39;19.40;99.90
48860;DHT22;34679;51.436;-2.518;2023-09-30T12:55:05;19.40;99.90
48860;DHT22;34679;51.436;-2.518;2023-09-30T12:57:31;19.40;99.90
48860;DHT22;34679;51.436;-2.518;2023-09-30T12:59:57;19.40;99.90
48860;DHT22;34679;51.436;-2.518;2023-09-30T13:02:23;19.30;99.90
48860;DHT22;34679;51.436;-2.518;2023-09-30T13:04:49;19.20;99.90
48860;DHT22;34679;51.436;-2.518;2023-09-30T13:07:15;19.30;99.90
48860;DHT22;34679;51.436;-2.518;2023-09-30T13:09:41;19.30;99.90
48860;DHT22;34679;51.436;-2.518;2023-09-30T13:12:07;19.30;99.90
48860;DHT22;34679;51.436;-2.518;2023-09-30T13:14:33;19.30;99.90
48860;DHT22;34679;51.436;-2.518;2023-09-30T13:16:59;19.20;99.90
48860;DHT22;34679;51.436;-2.518;2023-09-30T13:19:26;19.30;99.90
48860;DHT22;34679;51.436;-2.518;2023-09-30T13:21:52;19.30;99.90
48860;DHT22;34679;51.436;-2.518;2023-09-30T13:24:22;19.20;99.90
48860;DHT22;34679;51.436;-2.518;2023-09-30T13:26:48;19.10;99.90
48860;DHT22;34679;51.436;-2.518;2023-09-30T13:29:17;19.20;99.90
48860;DHT22;34679;51.436;-2.518;2023-09-30T13:31:43;19.20;99.90
48860;DHT22;34679;51.436;-2.518;2023-09-30T13:34:10;19.30;99.90
48860;DHT22;34679;51.436;-2.518;2023-09-30T13:36:38;19.30;99.90
48860;DHT22;34679;51.436;-2.518;2023-09-30T13:39:03;19.20;99.90
48860;DHT22;34679;51.436;-2.518;2023-09-30T13:41:35;19.10;99.90
48860;DHT22;34679;51.436;-2.518;2023-09-30T13:44:01;19.00;99.90
48860;DHT22;34679;51.436;-2.518;2023-09-30T13:46:27;18.90;99.90
48860;DHT22;34679;51.436;-2.518;2023-09-30T13:48:53;19.00;99.90
48860;DHT22;34679;51.436;-2.518;2023-09-30T13:51:19;19.10;99.90
48860;DHT22;34679;51.436;-2.518;2023-09-30T13:53:45;19.10;99.90
48860;DHT22;34679;51.436;-2.518;2023-09-30T13:56:10;19.00;99.90
48860;DHT22;34679;51.436;-2.518;2023-09-30T13:58:37;19.10;99.90
48860;DHT22;34679;51.436;-2.518;2023-09-30T14:01:03;19.10;99.90
48860;DHT22;34679;51.436;-2.518;2023-09-30T14:03:29;19.10;99.90
48860;DHT22;34679;51.436;-2.518;2023-09-30T14:05:55;19.00;99.90
48860;DHT22;34679;51.436;-2.518;2023-09-30T14:08:24;19.00;99.90
48860;DHT22;34679;51.436;-2.518;2023-09-30T14:10:50;18.90;99.90
48860;DHT22;34679;51.436;-2.518;2023-09-30T14:13:22;18.80;99.90
48860;DHT22;34679;51.436;-2.518;2023-09-30T14:15:49;18.80;99.90
48860;DHT22;34679;51.436;-2.518;2023-09-30T14:18:16;19.00;99.90
48860;DHT22;34679;51.436;-2.518;2023-09-30T14:20:42;19.20;99.90
48860;DHT22;34679;51.436;-2.518;2023-09-30T14:23:08;19.40;99.90
48860;DHT22;34679;51.436;-2.518;2023-09-30T14:25:34;19.60;99.90
48860;DHT22;34679;51.436;-2.518;2023-09-30T14:27:59;19.90;99.90
48860;DHT22;34679;51.436;-2.518;2023-09-30T14:30:25;20.10;99.90
48860;DHT22;34679;51.436;-2.518;2023-09-30T14:32:51;20.10;99.90
48860;DHT22;34679;51.436;-2.518;2023-09-30T14:35:17;20.10;99.90
48860;DHT22;34679;51.436;-2.518;2023-09-30T14:37:43;19.90;99.90
48860;DHT22;34679;51.436;-2.518;2023-09-30T14:40:09;19.70;99.90
48860;DHT22;34679;51.436;-2.518;2023-09-30T14:42:39;19.60;99.90
48860;DHT22;34679;51.436;-2.518;2023-09-30T14:45:05;19.40;99.90
48860;DHT22;34679;51.436;-2.518;2023-09-30T14:47:31;19.20;99.90
48860;DHT22;34679;51.436;-2.518;2023-09-30T14:49:57;19.10;99.90
48860;DHT22;34679;51.436;-2.518;2023-09-30T14:52:22;19.00;99.90
48860;DHT22;34679;51.436;-2.518;2023-09-30T14:54:48;18.90;99.90
48860;DHT22;34679;51.436;-2.518;2023-09-30T14:57:14;18.80;99.90
48860;DHT22;34679;51.436;-2.518;2023-09-30T14:59:41;18.90;99.90
48860;DHT22;34679;51.436;-2.518;2023-09-30T15:02:07;19.00;99.90
48860;DHT22;34679;51.436;-2.518;2023-09-30T15:04:36;19.10;99.90
48860;DHT22;34679;51.436;-2.518;2023-09-30T15:07:02;19.00;99.90
48860;DHT22;34679;51.436;-2.518;2023-09-30T15:09:28;19.00;99.90
48860;DHT22;34679;51.436;-2.518;2023-09-30T15:11:54;18.80;99.90
48860;DHT22;34679;51.436;-2.518;2023-09-30T15:14:20;18.80;99.90
48860;DHT22;34679;51.436;-2.518;2023-09-30T15:16:46;18.70;99.90
48860;DHT22;34679;51.436;-2.518;2023-09-30T15:19:11;18.60;99.90
48860;DHT22;34679;51.436;-2.518;2023-09-30T15:21:37;18.50;99.90
48860;DHT22;34679;51.436;-2.518;2023-09-30T15:24:04;18.60;99.90
48860;DHT22;34679;51.436;-2.518;2023-09-30T15:26:30;18.80;99.90
48860;DHT22;34679;51.436;-2.518;2023-09-30T15:29:00;19.00;99.90
48860;DHT22;34679;51.436;-2.518;2023-09-30T15:31:30;19.00;99.90
48860;DHT22;34679;51.436;-2.518;2023-09-30T15:33:57;19.10;99.90